sensor_id;sensor_type;location;lat;lon;timestamp;temperature;humidity
4306;DHT22;2166;49.926;8.608;2023-07-28T00:00:55;17.60;79.20
4306;DHT22;2166;49.926;8.608;2023-07-28T00:03:23;17.60;79.20
4306;DHT22;2166;49.926;8.608;2023-07-28T00:05:52;17.60;79.30
4306;DHT22;2166;49.926;8.608;2023-07-28T00:08:22;17.50;79.30
4306;DHT22;2166;49.926;8.608;2023-07-28T00:10:50;17.50;79.40
4306;DHT22;2166;49.926;8.608;2023-07-28T00:13:23;17.50;79.50
4306;DHT22;2166;49.926;8.608;2023-07-28T00:15:51;17.50;79.50
4306;DHT22;2166;49.926;8.608;2023-07-28T00:18:20;17.50;79.50
4306;DHT22;2166;49.926;8.608;2023-07-28T00:20:49;17.50;79.50
4306;DHT22;2166;49.926;8.608;2023-07-28T00:23:17;17.50;79.50
4306;DHT22;2166;49.926;8.608;2023-07-28T00:25:46;17.60;79.50
4306;DHT22;2166;49.926;8.608;2023-07-28T00:28:14;17.60;79.40
4306;DHT22;2166;49.926;8.608;2023-07-28T00:30:48;17.60;79.30
4306;DHT22;2166;49.926;8.608;2023-07-28T00:33:17;17.60;79.30
4306;DHT22;2166;49.926;8.608;2023-07-28T00:35:45;17.60;79.20
4306;DHT22;2166;49.926;8.608;2023-07-28T00:38:14;17.60;79.30
4306;DHT22;2166;49.926;8.608;2023-07-28T00:40:42;17.70;79.20
4306;DHT22;2166;49.926;8.608;2023-07-28T00:43:12;17.70;79.20
4306;DHT22;2166;49.926;8.608;2023-07-28T00:45:40;17.70;79.10
4306;DHT22;2166;49.926;8.608;2023-07-28T00:48:12;17.70;79.00
4306;DHT22;2166;49.926;8.608;2023-07-28T00:50:42;17.70;79.00
4306;DHT22;2166;49.926;8.608;2023-07-28T00:53:12;17.60;79.00
4306;DHT22;2166;49.926;8.608;2023-07-28T00:55:41;17.60;79.00
4306;DHT22;2166;49.926;8.608;2023-07-28T00:58:10;17.50;79.00
4306;DHT22;2166;49.926;8.608;2023-07-28T01:00:39;17.50;79.20
4306;DHT22;2166;49.926;8.608;2023-07-28T01:03:08;17.50;79.20
4306;DHT22;2166;49.926;8.608;2023-07-28T01:05:44;17.50;79.30
4306;DHT22;2166;49.926;8.608;2023-07-28T01:08:21;17.50;79.30
4306;DHT22;2166;49.926;8.608;2023-07-28T01:10:53;17.50;79.30
4306;DHT22;2166;49.926;8.608;2023-07-28T01:13:23;17.50;79.40
4306;DHT22;2166;49.926;8.608;2023-07-28T01:15:55;17.50;79.40
4306;DHT22;2166;49.926;8.608;2023-07-28T01:18:24;17.50;79.40
4306;DHT22;2166;49.926;8.608;2023-07-28T01:20:56;17.40;79.50
4306;DHT22;2166;49.926;8.608;2023-07-28T01:23:37;17.40;79.50
4306;DHT22;2166;49.926;8.608;2023-07-28T01:26:09;17.40;79.60
4306;DHT22;2166;49.926;8.608;2023-07-28T01:28:40;17.40;79.50
4306;DHT22;2166;49.926;8.608;2023-07-28T01:31:10;17.40;79.60
4306;DHT22;2166;49.926;8.608;2023-07-28T01:33:38;17.40;79.60
4306;DHT22;2166;49.926;8.608;2023-07-28T01:36:07;17.40;79.60
4306;DHT22;2166;49.926;8.608;2023-07-28T01:38:36;17.30;79.70
4306;DHT22;2166;49.926;8.608;2023-07-28T01:41:04;17.30;79.70
4306;DHT22;2166;49.926;8.608;2023-07-28T01:43:32;17.30;79.80
4306;DHT22;2166;49.926;8.608;2023-07-28T01:46:14;17.30;80.00
4306;DHT22;2166;49.926;8.608;2023-07-28T01:48:48;17.30;80.00
4306;DHT22;2166;49.926;8.608;2023-07-28T01:51:16;17.40;80.00
4306;DHT22;2166;49.926;8.608;2023-07-28T01:53:46;17.40;80.00
4306;DHT22;2166;49.926;8.608;2023-07-28T01:56:15;17.40;79.80
4306;DHT22;2166;49.926;8.608;2023-07-28T01:58:45;17.50;79.80
4306;DHT22;2166;49.926;8.608;2023-07-28T02:01:16;17.50;79.80
4306;DHT22;2166;49.926;8.608;2023-07-28T02:03:45;17.50;79.70
4306;DHT22;2166;49.926;8.608;2023-07-28T02:06:14;17.40;79.70
4306;DHT22;2166;49.926;8.608;2023-07-28T02:08:43;17.40;79.80
4306;DHT22;2166;49.926;8.608;2023-07-28T02:11:12;17.40;79.80
4306;DHT22;2166;49.926;8.608;2023-07-28T02:13:41;17.50;79.80
4306;DHT22;2166;49.926;8.608;2023-07-28T02:16:17;17.50;79.80
4306;DHT22;2166;49.926;8.608;2023-07-28T02:18:45;17.50;79.80
4306;DHT22;2166;49.926;8.608;2023-07-28T02:21:14;17.50;79.70
4306;DHT22;2166;49.926;8.608;2023-07-28T02:23:42;17.60;79.70
4306;DHT22;2166;49.926;8.608;2023-07-28T02:26:11;17.60;79.70
4306;DHT22;2166;49.926;8.608;2023-07-28T02:28:39;17.60;79.60
4306;DHT22;2166;49.926;8.608;2023-07-28T02:31:10;17.60;79.60
4306;DHT22;2166;49.926;8.608;2023-07-28T02:33:40;17.60;79.60
4306;DHT22;2166;49.926;8.608;2023-07-28T02:36:08;17.60;79.60
4306;DHT22;2166;49.926;8.608;2023-07-28T02:38:39;17.60;79.60
4306;DHT22;2166;49.926;8.608;2023-07-28T02:41:07;17.60;79.60
4306;DHT22;2166;49.926;8.608;2023-07-28T02:43:36;17.60;79.60
4306;DHT22;2166;49.926;8.608;2023-07-28T02:46:05;17.70;79.60
4306;DHT22;2166;49.926;8.608;2023-07-28T02:48:34;17.70;79.40
4306;DHT22;2166;49.926;8.608;2023-07-28T02:51:04;17.70;79.30
4306;DHT22;2166;49.926;8.608;2023-07-28T02:53:32;17.60;79.30
4306;DHT22;2166;49.926;8.608;2023-07-28T02:56:01;17.70;79.30
4306;DHT22;2166;49.926;8.608;2023-07-28T02:58:29;17.60;79.30
4306;DHT22;2166;49.926;8.608;2023-07-28T03:01:00;17.60;79.30
4306;DHT22;2166;49.926;8.608;2023-07-28T03:03:34;17.70;79.30
4306;DHT22;2166;49.926;8.608;2023-07-28T03:06:04;17.70;79.30
4306;DHT22;2166;49.926;8.608;2023-07-28T03:08:34;17.70;79.20
4306;DHT22;2166;49.926;8.608;2023-07-28T03:11:26;17.60;79.20
4306;DHT22;2166;49.926;8.608;2023-07-28T03:13:55;17.60;79.20
4306;DHT22;2166;49.926;8.608;2023-07-28T03:16:24;17.60;79.30
4306;DHT22;2166;49.926;8.608;2023-07-28T03:18:52;17.60;79.30
4306;DHT22;2166;49.926;8.608;2023-07-28T03:21:22;17.60;79.40
4306;DHT22;2166;49.926;8.608;2023-07-28T03:23:50;17.60;79.40
4306;DHT22;2166;49.926;8.608;2023-07-28T03:26:18;17.60;79.40
4306;DHT22;2166;49.926;8.608;2023-07-28T03:28:47;17.50;79.50
4306;DHT22;2166;49.926;8.608;2023-07-28T03:31:15;17.50;79.50
4306;DHT22;2166;49.926;8.608;2023-07-28T03:33:45;17.50;79.60
4306;DHT22;2166;49.926;8.608;2023-07-28T03:36:13;17.50;79.70
4306;DHT22;2166;49.926;8.608;2023-07-28T03:38:43;17.40;79.70
4306;DHT22;2166;49.926;8.608;2023-07-28T03:41:18;17.30;79.80
4306;DHT22;2166;49.926;8.608;2023-07-28T03:43:47;17.30;80.00
4306;DHT22;2166;49.926;8.608;2023-07-28T03:46:15;17.30;80.00
4306;DHT22;2166;49.926;8.608;2023-07-28T03:48:44;17.30;80.00
4306;DHT22;2166;49.926;8.608;2023-07-28T03:51:14;17.30;80.00
4306;DHT22;2166;49.926;8.608;2023-07-28T03:53:44;17.30;80.00
4306;DHT22;2166;49.926;8.608;2023-07-28T03:56:12;17.30;80.00
4306;DHT22;2166;49.926;8.608;2023-07-28T03:58:41;17.30;80.00
4306;DHT22;2166;49.926;8.608;2023-07-28T04:01:10;17.30;80.20
4306;DHT22;2166;49.926;8.608;2023-07-28T04:03:38;17.30;80.20
4306;DHT22;2166;49.926;8.608;2023-07-28T04:06:10;17.30;80.20
4306;DHT22;2166;49.926;8.608;2023-07-28T04:08:39;17.20;80.00
4306;DHT22;2166;49.926;8.608;2023-07-28T04:11:09;17.20;79.70
4306;DHT22;2166;49.926;8.608;2023-07-28T04:13:37;17.20;79.70
4306;DHT22;2166;49.926;8.608;2023-07-28T04:16:08;17.30;79.50
4306;DHT22;2166;49.926;8.608;2023-07-28T04:18:37;17.30;79.40
4306;DHT22;2166;49.926;8.608;2023-07-28T04:21:05;17.30;79.30
4306;DHT22;2166;49.926;8.608;2023-07-28T04:23:35;17.40;79.30
4306;DHT22;2166;49.926;8.608;2023-07-28T04:26:04;17.40;79.20
4306;DHT22;2166;49.926;8.608;2023-07-28T04:28:39;17.50;79.10
4306;DHT22;2166;49.926;8.608;2023-07-28T04:31:08;17.50;79.00
4306;DHT22;2166;49.926;8.608;2023-07-28T04:33:54;17.50;78.90
4306;DHT22;2166;49.926;8.608;2023-07-28T04:36:27;17.60;78.80
4306;DHT22;2166;49.926;8.608;2023-07-28T04:39:07;17.50;78.70
4306;DHT22;2166;49.926;8.608;2023-07-28T04:41:36;17.60;78.70
4306;DHT22;2166;49.926;8.608;2023-07-28T04:44:05;17.60;78.80
4306;DHT22;2166;49.926;8.608;2023-07-28T04:46:38;17.70;78.70
4306;DHT22;2166;49.926;8.608;2023-07-28T04:49:12;17.70;78.60
4306;DHT22;2166;49.926;8.608;2023-07-28T04:52:00;17.80;78.50
4306;DHT22;2166;49.926;8.608;2023-07-28T04:54:44;17.80;78.30
4306;DHT22;2166;49.926;8.608;2023-07-28T04:57:13;17.90;78.20
4306;DHT22;2166;49.926;8.608;2023-07-28T04:59:45;17.90;78.20
4306;DHT22;2166;49.926;8.608;2023-07-28T05:02:14;17.90;78.10
4306;DHT22;2166;49.926;8.608;2023-07-28T05:04:42;18.00;78.00
4306;DHT22;2166;49.926;8.608;2023-07-28T05:07:11;18.00;77.90
4306;DHT22;2166;49.926;8.608;2023-07-28T05:09:40;18.00;77.70
4306;DHT22;2166;49.926;8.608;2023-07-28T05:12:08;18.00;77.70
4306;DHT22;2166;49.926;8.608;2023-07-28T05:14:45;17.90;77.80
4306;DHT22;2166;49.926;8.608;2023-07-28T05:17:17;18.00;77.80
4306;DHT22;2166;49.926;8.608;2023-07-28T05:20:15;18.00;77.80
4306;DHT22;2166;49.926;8.608;2023-07-28T05:22:55;18.10;77.80
4306;DHT22;2166;49.926;8.608;2023-07-28T05:25:30;18.10;77.60
4306;DHT22;2166;49.926;8.608;2023-07-28T05:27:59;18.10;77.60
4306;DHT22;2166;49.926;8.608;2023-07-28T05:30:30;18.10;77.40
4306;DHT22;2166;49.926;8.608;2023-07-28T05:32:59;18.10;77.40
4306;DHT22;2166;49.926;8.608;2023-07-28T05:35:33;18.10;77.40
4306;DHT22;2166;49.926;8.608;2023-07-28T05:38:02;18.10;77.50
4306;DHT22;2166;49.926;8.608;2023-07-28T05:40:30;18.10;77.50
4306;DHT22;2166;49.926;8.608;2023-07-28T05:42:58;18.10;77.50
4306;DHT22;2166;49.926;8.608;2023-07-28T05:45:31;18.10;77.50
4306;DHT22;2166;49.926;8.608;2023-07-28T05:48:00;18.10;77.40
4306;DHT22;2166;49.926;8.608;2023-07-28T05:50:29;18.20;77.50
4306;DHT22;2166;49.926;8.608;2023-07-28T05:52:57;18.30;77.40
4306;DHT22;2166;49.926;8.608;2023-07-28T05:55:28;18.30;77.20
4306;DHT22;2166;49.926;8.608;2023-07-28T05:57:57;18.30;77.20
4306;DHT22;2166;49.926;8.608;2023-07-28T06:00:26;18.40;77.20
4306;DHT22;2166;49.926;8.608;2023-07-28T06:02:59;18.50;77.10
4306;DHT22;2166;49.926;8.608;2023-07-28T06:05:47;18.70;77.00
4306;DHT22;2166;49.926;8.608;2023-07-28T06:08:16;18.90;76.80
4306;DHT22;2166;49.926;8.608;2023-07-28T06:10:44;19.00;76.60
4306;DHT22;2166;49.926;8.608;2023-07-28T06:13:13;19.10;76.90
4306;DHT22;2166;49.926;8.608;2023-07-28T06:15:43;19.20;76.60
4306;DHT22;2166;49.926;8.608;2023-07-28T06:18:13;19.30;76.60
4306;DHT22;2166;49.926;8.608;2023-07-28T06:20:44;19.50;76.30
4306;DHT22;2166;49.926;8.608;2023-07-28T06:23:13;19.80;76.30
4306;DHT22;2166;49.926;8.608;2023-07-28T06:25:43;19.90;76.00
4306;DHT22;2166;49.926;8.608;2023-07-28T06:28:13;19.90;75.90
4306;DHT22;2166;49.926;8.608;2023-07-28T06:30:41;20.00;75.90
4306;DHT22;2166;49.926;8.608;2023-07-28T06:33:12;20.00;75.70
4306;DHT22;2166;49.926;8.608;2023-07-28T06:35:41;19.90;75.70
4306;DHT22;2166;49.926;8.608;2023-07-28T06:38:10;19.70;75.90
4306;DHT22;2166;49.926;8.608;2023-07-28T06:40:39;19.70;75.90
4306;DHT22;2166;49.926;8.608;2023-07-28T06:43:07;19.70;76.10
4306;DHT22;2166;49.926;8.608;2023-07-28T06:45:36;19.70;75.90
4306;DHT22;2166;49.926;8.608;2023-07-28T06:48:04;19.80;76.10
4306;DHT22;2166;49.926;8.608;2023-07-28T06:50:34;20.30;76.00
4306;DHT22;2166;49.926;8.608;2023-07-28T06:53:03;20.90;75.50
4306;DHT22;2166;49.926;8.608;2023-07-28T06:55:32;21.70;75.60
4306;DHT22;2166;49.926;8.608;2023-07-28T06:58:03;22.60;74.90
4306;DHT22;2166;49.926;8.608;2023-07-28T07:00:34;23.60;74.90
4306;DHT22;2166;49.926;8.608;2023-07-28T07:03:03;23.50;74.40
4306;DHT22;2166;49.926;8.608;2023-07-28T07:05:31;23.60;74.30
4306;DHT22;2166;49.926;8.608;2023-07-28T07:08:01;23.80;74.50
4306;DHT22;2166;49.926;8.608;2023-07-28T07:10:30;23.90;74.60
4306;DHT22;2166;49.926;8.608;2023-07-28T07:12:58;24.10;74.20
4306;DHT22;2166;49.926;8.608;2023-07-28T07:15:27;25.10;74.50
4306;DHT22;2166;49.926;8.608;2023-07-28T07:17:55;25.80;74.20
4306;DHT22;2166;49.926;8.608;2023-07-28T07:20:25;26.70;73.70
4306;DHT22;2166;49.926;8.608;2023-07-28T07:22:53;27.10;72.50
4306;DHT22;2166;49.926;8.608;2023-07-28T07:25:25;27.30;72.10
4306;DHT22;2166;49.926;8.608;2023-07-28T07:27:53;26.80;72.10
4306;DHT22;2166;49.926;8.608;2023-07-28T07:30:22;26.50;72.90
4306;DHT22;2166;49.926;8.608;2023-07-28T07:32:51;25.70;73.20
4306;DHT22;2166;49.926;8.608;2023-07-28T07:35:19;25.10;73.70
4306;DHT22;2166;49.926;8.608;2023-07-28T07:37:48;24.50;74.10
4306;DHT22;2166;49.926;8.608;2023-07-28T07:40:16;24.90;74.20
4306;DHT22;2166;49.926;8.608;2023-07-28T07:42:47;25.60;73.80
4306;DHT22;2166;49.926;8.608;2023-07-28T07:45:20;25.70;73.70
4306;DHT22;2166;49.926;8.608;2023-07-28T07:47:49;25.30;74.20
4306;DHT22;2166;49.926;8.608;2023-07-28T07:50:17;25.00;74.00
4306;DHT22;2166;49.926;8.608;2023-07-28T07:52:46;25.10;73.90
4306;DHT22;2166;49.926;8.608;2023-07-28T07:55:15;25.10;73.90
4306;DHT22;2166;49.926;8.608;2023-07-28T07:57:43;24.90;74.20
4306;DHT22;2166;49.926;8.608;2023-07-28T08:00:14;25.10;73.30
4306;DHT22;2166;49.926;8.608;2023-07-28T08:02:42;25.10;74.00
4306;DHT22;2166;49.926;8.608;2023-07-28T08:05:14;24.80;73.50
4306;DHT22;2166;49.926;8.608;2023-07-28T08:07:42;24.40;73.50
4306;DHT22;2166;49.926;8.608;2023-07-28T08:10:11;24.10;74.10
4306;DHT22;2166;49.926;8.608;2023-07-28T08:12:39;24.00;73.50
4306;DHT22;2166;49.926;8.608;2023-07-28T08:15:09;23.90;74.20
4306;DHT22;2166;49.926;8.608;2023-07-28T08:17:39;23.70;74.50
4306;DHT22;2166;49.926;8.608;2023-07-28T08:20:08;23.70;74.50
4306;DHT22;2166;49.926;8.608;2023-07-28T08:22:39;23.70;74.20
4306;DHT22;2166;49.926;8.608;2023-07-28T08:25:07;23.50;73.90
4306;DHT22;2166;49.926;8.608;2023-07-28T08:27:36;23.40;74.00
4306;DHT22;2166;49.926;8.608;2023-07-28T08:30:05;23.30;74.00
4306;DHT22;2166;49.926;8.608;2023-07-28T08:32:33;23.50;73.90
4306;DHT22;2166;49.926;8.608;2023-07-28T08:35:05;23.70;73.80
4306;DHT22;2166;49.926;8.608;2023-07-28T08:37:35;24.00;73.70
4306;DHT22;2166;49.926;8.608;2023-07-28T08:40:05;24.70;74.30
4306;DHT22;2166;49.926;8.608;2023-07-28T08:42:36;25.50;73.40
4306;DHT22;2166;49.926;8.608;2023-07-28T08:45:06;26.40;73.20
4306;DHT22;2166;49.926;8.608;2023-07-28T08:47:36;27.30;72.00
4306;DHT22;2166;49.926;8.608;2023-07-28T08:50:07;28.00;71.30
4306;DHT22;2166;49.926;8.608;2023-07-28T08:52:36;27.90;70.80
4306;DHT22;2166;49.926;8.608;2023-07-28T08:55:07;27.30;72.20
4306;DHT22;2166;49.926;8.608;2023-07-28T08:57:38;26.80;72.40
4306;DHT22;2166;49.926;8.608;2023-07-28T09:00:08;26.60;73.00
4306;DHT22;2166;49.926;8.608;2023-07-28T09:02:40;26.10;73.50
4306;DHT22;2166;49.926;8.608;2023-07-28T09:05:18;25.80;73.70
4306;DHT22;2166;49.926;8.608;2023-07-28T09:07:48;25.50;74.20
4306;DHT22;2166;49.926;8.608;2023-07-28T09:10:16;26.00;74.10
4306;DHT22;2166;49.926;8.608;2023-07-28T09:12:48;26.10;73.50
4306;DHT22;2166;49.926;8.608;2023-07-28T09:15:16;26.30;73.50
4306;DHT22;2166;49.926;8.608;2023-07-28T09:17:47;26.70;73.10
4306;DHT22;2166;49.926;8.608;2023-07-28T09:20:17;26.80;73.00
4306;DHT22;2166;49.926;8.608;2023-07-28T09:22:46;27.00;72.70
4306;DHT22;2166;49.926;8.608;2023-07-28T09:25:15;27.20;72.50
4306;DHT22;2166;49.926;8.608;2023-07-28T09:27:49;27.10;72.20
4306;DHT22;2166;49.926;8.608;2023-07-28T09:30:18;27.00;71.90
4306;DHT22;2166;49.926;8.608;2023-07-28T09:32:51;27.00;72.50
4306;DHT22;2166;49.926;8.608;2023-07-28T09:35:22;27.30;72.40
4306;DHT22;2166;49.926;8.608;2023-07-28T09:37:51;27.50;71.50
4306;DHT22;2166;49.926;8.608;2023-07-28T09:40:23;27.50;72.30
4306;DHT22;2166;49.926;8.608;2023-07-28T09:42:52;28.60;70.80
4306;DHT22;2166;49.926;8.608;2023-07-28T09:45:23;28.90;68.80
4306;DHT22;2166;49.926;8.608;2023-07-28T09:48:07;28.20;69.80
4306;DHT22;2166;49.926;8.608;2023-07-28T09:50:41;27.10;71.50
4306;DHT22;2166;49.926;8.608;2023-07-28T09:53:10;26.90;73.00
4306;DHT22;2166;49.926;8.608;2023-07-28T09:55:39;26.80;72.20
4306;DHT22;2166;49.926;8.608;2023-07-28T09:58:10;26.30;73.90
4306;DHT22;2166;49.926;8.608;2023-07-28T10:00:41;25.70;74.00
4306;DHT22;2166;49.926;8.608;2023-07-28T10:03:11;25.20;74.20
4306;DHT22;2166;49.926;8.608;2023-07-28T10:05:41;24.60;74.20
4306;DHT22;2166;49.926;8.608;2023-07-28T10:08:10;24.40;74.80
4306;DHT22;2166;49.926;8.608;2023-07-28T10:10:40;24.40;74.10
4306;DHT22;2166;49.926;8.608;2023-07-28T10:13:19;24.70;74.20
4306;DHT22;2166;49.926;8.608;2023-07-28T10:15:49;24.70;74.40
4306;DHT22;2166;49.926;8.608;2023-07-28T10:18:20;24.60;74.30
4306;DHT22;2166;49.926;8.608;2023-07-28T10:20:51;24.60;74.30
4306;DHT22;2166;49.926;8.608;2023-07-28T10:23:21;24.50;74.40
4306;DHT22;2166;49.926;8.608;2023-07-28T10:25:56;24.40;74.40
4306;DHT22;2166;49.926;8.608;2023-07-28T10:28:27;24.30;74.60
4306;DHT22;2166;49.926;8.608;2023-07-28T10:30:57;24.20;74.50
4306;DHT22;2166;49.926;8.608;2023-07-28T10:33:27;24.20;74.40
4306;DHT22;2166;49.926;8.608;2023-07-28T10:35:58;24.50;74.40
4306;DHT22;2166;49.926;8.608;2023-07-28T10:38:33;24.80;74.60
4306;DHT22;2166;49.926;8.608;2023-07-28T10:41:08;24.80;74.50
4306;DHT22;2166;49.926;8.608;2023-07-28T10:43:37;24.50;74.30
4306;DHT22;2166;49.926;8.608;2023-07-28T10:46:08;24.10;74.30
4306;DHT22;2166;49.926;8.608;2023-07-28T10:48:42;23.70;74.60
4306;DHT22;2166;49.926;8.608;2023-07-28T10:51:20;23.40;74.10
4306;DHT22;2166;49.926;8.608;2023-07-28T10:53:50;23.20;74.00
4306;DHT22;2166;49.926;8.608;2023-07-28T10:56:19;23.20;74.10
4306;DHT22;2166;49.926;8.608;2023-07-28T10:58:56;23.10;73.90
4306;DHT22;2166;49.926;8.608;2023-07-28T11:01:31;22.90;73.80
4306;DHT22;2166;49.926;8.608;2023-07-28T11:04:07;22.70;74.10
4306;DHT22;2166;49.926;8.608;2023-07-28T11:06:40;22.60;74.20
4306;DHT22;2166;49.926;8.608;2023-07-28T11:09:09;22.50;74.20
4306;DHT22;2166;49.926;8.608;2023-07-28T11:11:38;22.30;74.20
4306;DHT22;2166;49.926;8.608;2023-07-28T11:14:11;22.40;74.20
4306;DHT22;2166;49.926;8.608;2023-07-28T11:16:41;22.50;74.30
4306;DHT22;2166;49.926;8.608;2023-07-28T11:19:11;22.70;74.10
4306;DHT22;2166;49.926;8.608;2023-07-28T11:21:42;22.80;74.10
4306;DHT22;2166;49.926;8.608;2023-07-28T11:24:11;22.90;74.00
4306;DHT22;2166;49.926;8.608;2023-07-28T11:26:39;23.10;74.00
4306;DHT22;2166;49.926;8.608;2023-07-28T11:29:08;23.30;74.20
4306;DHT22;2166;49.926;8.608;2023-07-28T11:31:37;23.50;74.00
4306;DHT22;2166;49.926;8.608;2023-07-28T11:34:13;23.60;74.00
4306;DHT22;2166;49.926;8.608;2023-07-28T11:36:43;23.70;73.90
4306;DHT22;2166;49.926;8.608;2023-07-28T11:39:12;23.70;73.90
4306;DHT22;2166;49.926;8.608;2023-07-28T11:41:42;23.60;74.00
4306;DHT22;2166;49.926;8.608;2023-07-28T11:44:11;23.60;74.00
4306;DHT22;2166;49.926;8.608;2023-07-28T11:46:41;23.60;73.40
4306;DHT22;2166;49.926;8.608;2023-07-28T11:49:11;23.60;73.70
4306;DHT22;2166;49.926;8.608;2023-07-28T11:51:40;23.60;73.90
4306;DHT22;2166;49.926;8.608;2023-07-28T11:54:13;23.90;74.00
4306;DHT22;2166;49.926;8.608;2023-07-28T11:56:46;24.10;73.80
4306;DHT22;2166;49.926;8.608;2023-07-28T11:59:15;24.00;74.00
4306;DHT22;2166;49.926;8.608;2023-07-28T12:01:58;24.10;74.10
4306;DHT22;2166;49.926;8.608;2023-07-28T12:04:31;24.50;73.70
4306;DHT22;2166;49.926;8.608;2023-07-28T12:07:05;24.80;73.50
4306;DHT22;2166;49.926;8.608;2023-07-28T12:09:50;25.00;73.50
4306;DHT22;2166;49.926;8.608;2023-07-28T12:12:26;24.80;73.40
4306;DHT22;2166;49.926;8.608;2023-07-28T12:14:55;24.60;74.40
4306;DHT22;2166;49.926;8.608;2023-07-28T12:17:29;24.20;74.10
4306;DHT22;2166;49.926;8.608;2023-07-28T12:20:04;24.00;74.00
4306;DHT22;2166;49.926;8.608;2023-07-28T12:22:45;23.90;73.80
4306;DHT22;2166;49.926;8.608;2023-07-28T12:25:15;23.90;74.20
4306;DHT22;2166;49.926;8.608;2023-07-28T12:27:44;23.80;73.80
4306;DHT22;2166;49.926;8.608;2023-07-28T12:30:12;23.80;74.00
4306;DHT22;2166;49.926;8.608;2023-07-28T12:32:44;24.00;74.00
4306;DHT22;2166;49.926;8.608;2023-07-28T12:35:18;24.00;73.50
4306;DHT22;2166;49.926;8.608;2023-07-28T12:37:48;23.50;73.90
4306;DHT22;2166;49.926;8.608;2023-07-28T12:40:23;23.30;74.10
4306;DHT22;2166;49.926;8.608;2023-07-28T12:42:56;23.60;73.70
4306;DHT22;2166;49.926;8.608;2023-07-28T12:45:27;24.00;73.70
4306;DHT22;2166;49.926;8.608;2023-07-28T12:48:16;24.50;73.80
4306;DHT22;2166;49.926;8.608;2023-07-28T12:50:48;24.80;73.80
4306;DHT22;2166;49.926;8.608;2023-07-28T12:53:29;24.70;73.80
4306;DHT22;2166;49.926;8.608;2023-07-28T12:55:59;24.40;73.30
4306;DHT22;2166;49.926;8.608;2023-07-28T12:58:27;24.40;74.50
4306;DHT22;2166;49.926;8.608;2023-07-28T13:01:01;24.70;74.20
4306;DHT22;2166;49.926;8.608;2023-07-28T13:03:32;24.60;73.70
4306;DHT22;2166;49.926;8.608;2023-07-28T13:06:00;24.50;73.90
4306;DHT22;2166;49.926;8.608;2023-07-28T13:08:29;24.50;74.00
4306;DHT22;2166;49.926;8.608;2023-07-28T13:11:01;24.20;73.90
4306;DHT22;2166;49.926;8.608;2023-07-28T13:13:33;24.30;73.90
4306;DHT22;2166;49.926;8.608;2023-07-28T13:16:01;24.20;73.70
4306;DHT22;2166;49.926;8.608;2023-07-28T13:18:30;24.10;74.00
4306;DHT22;2166;49.926;8.608;2023-07-28T13:20:59;24.00;73.90
4306;DHT22;2166;49.926;8.608;2023-07-28T13:23:29;24.10;74.00
4306;DHT22;2166;49.926;8.608;2023-07-28T13:25:58;24.10;74.20
4306;DHT22;2166;49.926;8.608;2023-07-28T13:28:27;24.10;74.00
4306;DHT22;2166;49.926;8.608;2023-07-28T13:30:55;23.80;74.10
4306;DHT22;2166;49.926;8.608;2023-07-28T13:33:24;23.60;74.10
4306;DHT22;2166;49.926;8.608;2023-07-28T13:35:54;23.50;74.10
4306;DHT22;2166;49.926;8.608;2023-07-28T13:38:23;23.40;74.20
4306;DHT22;2166;49.926;8.608;2023-07-28T13:40:54;23.40;74.00
4306;DHT22;2166;49.926;8.608;2023-07-28T13:43:22;23.40;74.10
4306;DHT22;2166;49.926;8.608;2023-07-28T13:45:52;23.40;74.00
4306;DHT22;2166;49.926;8.608;2023-07-28T13:48:22;23.30;74.00
4306;DHT22;2166;49.926;8.608;2023-07-28T13:50:52;23.40;74.00
4306;DHT22;2166;49.926;8.608;2023-07-28T13:53:25;23.50;74.00
4306;DHT22;2166;49.926;8.608;2023-07-28T13:55:56;23.60;74.20
4306;DHT22;2166;49.926;8.608;2023-07-28T13:58:26;23.60;73.90
4306;DHT22;2166;49.926;8.608;2023-07-28T14:00:56;23.60;74.00
4306;DHT22;2166;49.926;8.608;2023-07-28T14:03:24;23.60;74.00
4306;DHT22;2166;49.926;8.608;2023-07-28T14:05:53;23.50;74.00
4306;DHT22;2166;49.926;8.608;2023-07-28T14:08:21;23.60;74.20
4306;DHT22;2166;49.926;8.608;2023-07-28T14:10:49;23.90;74.20
4306;DHT22;2166;49.926;8.608;2023-07-28T14:13:19;24.10;74.20
4306;DHT22;2166;49.926;8.608;2023-07-28T14:15:49;24.20;74.10
4306;DHT22;2166;49.926;8.608;2023-07-28T14:18:19;24.10;74.00
4306;DHT22;2166;49.926;8.608;2023-07-28T14:20:47;24.10;74.00
4306;DHT22;2166;49.926;8.608;2023-07-28T14:23:23;24.20;73.90
4306;DHT22;2166;49.926;8.608;2023-07-28T14:25:52;24.50;74.00
4306;DHT22;2166;49.926;8.608;2023-07-28T14:28:23;24.60;74.00
4306;DHT22;2166;49.926;8.608;2023-07-28T14:30:52;24.60;73.90
4306;DHT22;2166;49.926;8.608;2023-07-28T14:33:22;24.70;74.00
4306;DHT22;2166;49.926;8.608;2023-07-28T14:35:51;24.80;73.80
4306;DHT22;2166;49.926;8.608;2023-07-28T14:38:19;24.90;73.80
4306;DHT22;2166;49.926;8.608;2023-07-28T14:40:48;24.90;73.70
4306;DHT22;2166;49.926;8.608;2023-07-28T14:43:19;25.00;73.70
4306;DHT22;2166;49.926;8.608;2023-07-28T14:45:49;24.90;73.70
4306;DHT22;2166;49.926;8.608;2023-07-28T14:48:18;24.70;74.00
4306;DHT22;2166;49.926;8.608;2023-07-28T14:50:48;24.60;73.90
4306;DHT22;2166;49.926;8.608;2023-07-28T14:53:33;24.60;74.00
4306;DHT22;2166;49.926;8.608;2023-07-28T14:56:02;24.60;74.10
4306;DHT22;2166;49.926;8.608;2023-07-28T14:58:31;24.40;74.10
4306;DHT22;2166;49.926;8.608;2023-07-28T15:01:00;24.20;73.90
4306;DHT22;2166;49.926;8.608;2023-07-28T15:03:32;23.90;74.10
4306;DHT22;2166;49.926;8.608;2023-07-28T15:06:02;23.60;73.90
4306;DHT22;2166;49.926;8.608;2023-07-28T15:08:31;23.40;74.00
4306;DHT22;2166;49.926;8.608;2023-07-28T15:10:59;23.60;73.90
4306;DHT22;2166;49.926;8.608;2023-07-28T15:13:27;23.40;74.00
4306;DHT22;2166;49.926;8.608;2023-07-28T15:15:56;23.40;74.00
4306;DHT22;2166;49.926;8.608;2023-07-28T15:18:24;23.50;73.90
4306;DHT22;2166;49.926;8.608;2023-07-28T15:20:53;23.50;73.90
4306;DHT22;2166;49.926;8.608;2023-07-28T15:23:25;23.40;73.90
4306;DHT22;2166;49.926;8.608;2023-07-28T15:25:54;23.30;74.00
4306;DHT22;2166;49.926;8.608;2023-07-28T15:28:24;23.10;74.10
4306;DHT22;2166;49.926;8.608;2023-07-28T15:30:53;23.00;74.10
4306;DHT22;2166;49.926;8.608;2023-07-28T15:33:23;22.80;74.30
4306;DHT22;2166;49.926;8.608;2023-07-28T15:35:53;22.70;74.40
4306;DHT22;2166;49.926;8.608;2023-07-28T15:38:21;22.70;74.30
4306;DHT22;2166;49.926;8.608;2023-07-28T15:40:51;22.90;74.30
4306;DHT22;2166;49.926;8.608;2023-07-28T15:43:26;23.00;74.20
4306;DHT22;2166;49.926;8.608;2023-07-28T15:45:56;23.00;74.20
4306;DHT22;2166;49.926;8.608;2023-07-28T15:48:25;22.80;74.30
4306;DHT22;2166;49.926;8.608;2023-07-28T15:50:53;22.60;74.40
4306;DHT22;2166;49.926;8.608;2023-07-28T15:53:22;22.70;74.50
4306;DHT22;2166;49.926;8.608;2023-07-28T15:55:52;22.80;74.40
4306;DHT22;2166;49.926;8.608;2023-07-28T15:58:20;22.60;74.40
4306;DHT22;2166;49.926;8.608;2023-07-28T16:00:51;22.70;74.60
4306;DHT22;2166;49.926;8.608;2023-07-28T16:03:19;22.40;74.40
4306;DHT22;2166;49.926;8.608;2023-07-28T16:05:48;22.30;74.40
4306;DHT22;2166;49.926;8.608;2023-07-28T16:08:16;22.20;74.50
4306;DHT22;2166;49.926;8.608;2023-07-28T16:10:44;22.30;74.40
4306;DHT22;2166;49.926;8.608;2023-07-28T16:13:14;22.20;74.60
4306;DHT22;2166;49.926;8.608;2023-07-28T16:15:43;22.20;74.50
4306;DHT22;2166;49.926;8.608;2023-07-28T16:18:11;22.00;74.60
4306;DHT22;2166;49.926;8.608;2023-07-28T16:20:42;22.00;74.80
4306;DHT22;2166;49.926;8.608;2023-07-28T16:23:11;22.00;74.60